createdAt,value
2022-08-09T00:00:00.255Z,2.05
2022-08-09T00:02:42.996Z,2.05
2022-08-09T00:06:17.290Z,2.10
2022-08-09T00:08:12.929Z,2.30
2022-08-09T00:10:59.373Z,2.15
2022-08-09T00:13:31.804Z,2.30
2022-08-09T00:16:02.447Z,1.90
2022-08-09T00:18:35.641Z,2.05
2022-08-09T00:21:07.904Z,2.20
2022-08-09T00:23:56.009Z,2.35
2022-08-09T00:26:30.048Z,2.38
2022-08-09T00:29:12.417Z,2.13
2022-08-09T00:31:59.893Z,2.42
2022-08-09T00:34:33.499Z,2.33
2022-08-09T00:37:02.247Z,2.38
2022-08-09T00:40:09.000Z,2.30
2022-08-09T00:44:15.770Z,2.10
2022-08-09T00:45:14.937Z,2.05
2022-08-09T00:47:44.250Z,2.20
2022-08-09T00:50:15.049Z,2.20
2022-08-09T00:52:43.917Z,2.35
2022-08-09T00:55:32.729Z,2.40
2022-08-09T00:58:00.842Z,2.28
2022-08-09T01:00:30.636Z,2.30
2022-08-09T01:03:14.598Z,1.95
2022-08-09T01:05:53.465Z,2.05
2022-08-09T01:08:32.315Z,2.00
2022-08-09T01:11:14.981Z,2.38
2022-08-09T01:13:58.644Z,2.45
2022-08-09T01:16:35.146Z,2.28
2022-08-09T01:19:39.984Z,2.30
2022-08-09T01:22:48.292Z,2.43
2022-08-09T01:25:37.409Z,2.13
2022-08-09T01:28:13.017Z,2.47
2022-08-09T01:30:51.887Z,2.30
2022-08-09T01:33:25.176Z,2.53
2022-08-09T01:36:02.790Z,2.15
2022-08-09T01:38:36.262Z,2.53
2022-08-09T01:41:13.337Z,2.20
2022-08-09T01:43:51.187Z,2.28
2022-08-09T01:49:00.123Z,2.28
2022-08-09T01:51:32.275Z,2.30
2022-08-09T01:54:04.205Z,2.53
2022-08-09T01:56:36.554Z,2.50
2022-08-09T01:59:10.922Z,2.88
2022-08-09T02:01:57.976Z,2.30
2022-08-09T02:04:28.653Z,2.72
2022-08-09T02:07:15.505Z,2.70
2022-08-09T02:10:05.365Z,2.80
2022-08-09T02:12:36.198Z,2.35
2022-08-09T02:15:15.330Z,3.13
2022-08-09T02:18:01.243Z,2.88
2022-08-09T02:20:44.926Z,2.38
2022-08-09T02:23:21.324Z,2.60
2022-08-09T02:25:55.875Z,2.88
2022-08-09T02:28:32.441Z,2.60
2022-08-09T02:31:06.102Z,2.92
2022-08-09T02:34:06.375Z,3.10
2022-08-09T02:36:32.488Z,2.60
2022-08-09T02:39:04.893Z,2.80
2022-08-09T02:41:39.664Z,2.60
2022-08-09T02:44:29.584Z,2.67
2022-08-09T02:47:04.998Z,2.80
2022-08-09T02:49:38.970Z,2.63
2022-08-09T02:52:14.899Z,2.92
2022-08-09T02:54:54.719Z,2.95
2022-08-09T02:57:25.609Z,2.90
2022-08-09T03:00:20.832Z,3.00
2022-08-09T03:02:58.589Z,3.00
2022-08-09T03:05:30.040Z,3.10
2022-08-09T03:08:05.765Z,2.67
2022-08-09T03:10:37.354Z,2.78
2022-08-09T03:13:08.234Z,2.75
2022-08-09T03:16:06.826Z,2.70
2022-08-09T03:18:31.204Z,2.72
2022-08-09T03:21:03.043Z,2.85
2022-08-09T03:23:31.978Z,3.42
2022-08-09T03:26:04.877Z,2.58
2022-08-09T03:28:35.111Z,3.35
2022-08-09T03:31:10.397Z,3.42
2022-08-09T03:33:54.383Z,3.38
2022-08-09T03:36:27.415Z,4.57
2022-08-09T03:38:56.665Z,5.47
2022-08-09T03:41:29.872Z,5.32
2022-08-09T03:44:13.290Z,4.90
2022-08-09T03:46:44.167Z,4.60
2022-08-09T03:49:19.247Z,4.53
2022-08-09T03:51:56.101Z,4.47
2022-08-09T03:54:31.402Z,4.15
2022-08-09T03:57:04.488Z,3.55
2022-08-09T03:59:54.360Z,3.78
2022-08-09T04:02:26.704Z,3.58
2022-08-09T04:04:58.701Z,3.30
2022-08-09T04:07:47.183Z,3.47
2022-08-09T04:10:20.255Z,3.67
2022-08-09T04:12:51.455Z,3.35
2022-08-09T04:15:39.258Z,3.30
2022-08-09T04:18:17.806Z,3.10
2022-08-09T04:20:48.489Z,3.70
2022-08-09T04:23:17.913Z,3.45
2022-08-09T04:25:52.985Z,3.50
2022-08-09T04:28:32.897Z,3.50
2022-08-09T04:31:09.700Z,3.10
2022-08-09T04:33:47.589Z,2.90
2022-08-09T04:36:24.722Z,3.22
2022-08-09T04:38:53.764Z,3.40
2022-08-09T04:41:23.713Z,3.50
2022-08-09T04:44:06.936Z,3.20
2022-08-09T04:46:58.963Z,3.17
2022-08-09T04:54:56.133Z,3.45
2022-08-09T04:57:25.442Z,3.38
2022-08-09T05:02:24.376Z,4.75
2022-08-09T05:04:56.235Z,6.65
2022-08-09T05:10:01.712Z,5.90
2022-08-09T05:12:32.902Z,5.50
2022-08-09T05:15:11.550Z,5.47
2022-08-09T05:18:39.319Z,5.43
2022-08-09T05:20:40.568Z,5.25
2022-08-09T05:23:55.221Z,5.40
2022-08-09T05:25:58.921Z,6.40
2022-08-09T05:28:27.578Z,6.13
2022-08-09T05:30:55.939Z,5.15
2022-08-09T05:33:26.431Z,5.22
2022-08-09T05:36:04.181Z,4.85
2022-08-09T05:38:39.136Z,4.35
2022-08-09T05:41:08.491Z,4.30
2022-08-09T05:43:45.149Z,4.18
2022-08-09T05:46:17.525Z,4.38
2022-08-09T05:48:48.725Z,5.03
2022-08-09T05:51:42.462Z,6.13
2022-08-09T05:54:15.492Z,6.50
2022-08-09T05:56:54.447Z,6.30
2022-08-09T05:59:24.508Z,4.97
2022-08-09T06:01:58.579Z,5.40
2022-08-09T06:04:35.053Z,5.05
2022-08-09T06:07:03.842Z,5.25
2022-08-09T06:09:54.328Z,5.22
2022-08-09T06:12:22.859Z,4.95
2022-08-09T06:14:54.787Z,4.60
2022-08-09T06:17:23.054Z,4.57
2022-08-09T06:19:51.535Z,4.45
2022-08-09T06:22:23.573Z,4.30
2022-08-09T06:24:59.094Z,4.05
2022-08-09T06:27:43.160Z,4.30
2022-08-09T06:30:18.036Z,4.38
2022-08-09T06:32:58.900Z,4.05
2022-08-09T06:35:35.635Z,3.95
2022-08-09T06:38:19.220Z,3.95
2022-08-09T06:40:48.941Z,3.53
2022-08-09T06:43:23.542Z,3.85
2022-08-09T06:46:06.626Z,3.58
2022-08-09T06:48:43.046Z,3.33
2022-08-09T06:51:11.747Z,3.22
2022-08-09T06:53:40.672Z,3.58
2022-08-09T06:56:10.865Z,3.25
2022-08-09T07:00:46.990Z,3.28
2022-08-09T07:01:35.763Z,3.08
2022-08-09T07:04:19.707Z,3.17
2022-08-09T07:06:53.461Z,3.42
2022-08-09T07:09:55.637Z,3.10
2022-08-09T07:12:20.153Z,3.33
2022-08-09T07:14:51.270Z,3.67
2022-08-09T07:17:22.518Z,3.10
2022-08-09T07:19:55.474Z,3.55
2022-08-09T07:22:34.197Z,3.40
2022-08-09T07:25:11.358Z,3.08
2022-08-09T07:30:24.375Z,3.35
2022-08-09T07:32:53.670Z,3.40
2022-08-09T07:35:23.552Z,3.05
2022-08-09T07:37:59.432Z,3.17
2022-08-09T07:40:37.427Z,2.67
2022-08-09T07:43:18.087Z,3.28
2022-08-09T07:45:46.481Z,2.83
2022-08-09T07:48:28.413Z,3.40
2022-08-09T07:51:09.823Z,3.00
2022-08-09T07:54:04.936Z,3.05
2022-08-09T07:56:34.973Z,3.00
2022-08-09T07:59:15.715Z,3.20
2022-08-09T08:01:53.040Z,3.38
2022-08-09T08:04:25.598Z,3.28
2022-08-09T08:07:57.390Z,3.30
2022-08-09T08:12:29.148Z,3.80
2022-08-09T08:14:59.476Z,3.65
2022-08-09T08:17:51.918Z,3.53
2022-08-09T08:20:16.424Z,3.30
2022-08-09T08:22:48.351Z,3.20
2022-08-09T08:25:16.946Z,3.15
2022-08-09T08:27:49.833Z,3.13
2022-08-09T08:30:20.008Z,3.50
2022-08-09T08:32:52.624Z,3.40
2022-08-09T08:35:22.869Z,3.50
2022-08-09T08:38:01.806Z,3.17
2022-08-09T08:40:34.490Z,3.92
2022-08-09T08:43:08.958Z,3.30
2022-08-09T08:45:59.624Z,3.60
2022-08-09T08:48:51.592Z,3.28
2022-08-09T08:51:20.582Z,3.50
2022-08-09T08:54:03.365Z,3.10
2022-08-09T08:56:35.774Z,3.00
2022-08-09T08:59:19.278Z,3.13
2022-08-09T09:01:53.371Z,3.17
2022-08-09T09:04:31.170Z,3.13
2022-08-09T09:07:07.922Z,3.30
2022-08-09T09:09:59.404Z,3.20
2022-08-09T09:12:32.039Z,3.55
2022-08-09T09:15:05.578Z,3.30
2022-08-09T09:17:49.293Z,3.13
2022-08-09T09:20:21.753Z,3.10
2022-08-09T09:22:55.831Z,3.20
2022-08-09T09:26:03.164Z,2.95
2022-08-09T09:29:02.451Z,3.20
2022-08-09T09:31:17.545Z,3.50
2022-08-09T09:34:14.435Z,2.97
2022-08-09T09:36:51.047Z,3.17
2022-08-09T09:39:42.898Z,3.35
2022-08-09T09:42:25.598Z,3.58
2022-08-09T09:44:59.399Z,3.33
2022-08-09T09:47:29.394Z,3.30
2022-08-09T09:50:13.621Z,3.70
2022-08-09T09:52:53.809Z,3.42
2022-08-09T09:55:32.308Z,3.42
2022-08-09T09:58:16.188Z,3.53
2022-08-09T10:00:53.788Z,3.47
2022-08-09T10:03:57.029Z,3.70
2022-08-09T10:06:32.481Z,3.30
2022-08-09T10:09:12.006Z,3.35
2022-08-09T10:12:04.457Z,3.78
2022-08-09T10:14:47.861Z,3.42
2022-08-09T10:17:51.254Z,3.85
2022-08-09T10:20:31.844Z,3.47
2022-08-09T10:23:19.991Z,3.50
2022-08-09T10:26:06.008Z,3.65
2022-08-09T10:28:38.424Z,3.50
2022-08-09T10:34:08.257Z,3.42
2022-08-09T10:36:38.668Z,3.17
2022-08-09T10:39:15.949Z,3.38
2022-08-09T10:41:47.917Z,3.42
2022-08-09T10:44:19.653Z,2.83
2022-08-09T10:48:19.156Z,3.13
2022-08-09T10:50:27.248Z,2.85
2022-08-09T10:53:10.070Z,2.53
2022-08-09T10:55:58.188Z,2.67
2022-08-09T10:58:33.672Z,2.50
2022-08-09T11:03:11.488Z,2.75
2022-08-09T11:04:20.145Z,2.30
2022-08-09T11:07:57.425Z,2.40
2022-08-09T11:10:18.759Z,2.10
2022-08-09T11:13:49.958Z,2.22
2022-08-09T11:16:35.875Z,2.22
2022-08-09T11:19:09.478Z,2.08
2022-08-09T11:21:54.994Z,1.95
2022-08-09T11:24:26.788Z,1.85
2022-08-09T11:26:58.057Z,1.98
2022-08-09T11:30:05.050Z,1.90
2022-08-09T11:32:45.506Z,1.80
2022-08-09T11:35:18.723Z,1.80
2022-08-09T11:37:56.500Z,1.58
2022-08-09T11:40:31.889Z,1.55
2022-08-09T11:43:02.612Z,1.70
2022-08-09T11:45:43.154Z,1.63
2022-08-09T11:48:26.757Z,1.80
2022-08-09T11:52:49.617Z,1.98
2022-08-09T11:54:14.394Z,1.65
2022-08-09T11:56:50.094Z,1.67
2022-08-09T11:59:33.550Z,1.80
2022-08-09T12:02:17.578Z,1.92
2022-08-09T12:04:58.126Z,1.30
2022-08-09T12:07:41.161Z,1.60
2022-08-09T12:10:14.487Z,1.20
2022-08-09T12:13:03.784Z,1.58
2022-08-09T12:15:52.323Z,1.50
2022-08-09T12:18:29.729Z,1.60
2022-08-09T12:21:00.431Z,1.70
2022-08-09T12:23:56.486Z,1.50
2022-08-09T12:26:19.765Z,1.20
2022-08-09T12:29:13.385Z,1.30
2022-08-09T12:31:58.897Z,1.55
2022-08-09T12:34:36.779Z,1.30
2022-08-09T12:37:22.299Z,1.30
2022-08-09T12:40:03.555Z,1.38
2022-08-09T12:42:35.058Z,1.20
2022-08-09T12:45:32.463Z,1.48
2022-08-09T12:47:53.893Z,1.60
2022-08-09T12:50:25.122Z,1.52
2022-08-09T12:53:09.001Z,1.30
2022-08-09T12:56:15.908Z,1.40
2022-08-09T12:58:28.291Z,1.45
2022-08-09T13:00:58.276Z,1.40
2022-08-09T13:03:57.166Z,1.40
2022-08-09T13:06:34.739Z,1.30
2022-08-09T13:09:12.603Z,1.40
2022-08-09T13:11:43.279Z,1.33
2022-08-09T13:14:41.025Z,1.25
2022-08-09T13:17:05.211Z,1.48
2022-08-09T13:20:09.680Z,1.50
2022-08-09T13:22:36.265Z,1.38
2022-08-09T13:25:14.681Z,1.50
2022-08-09T13:27:54.483Z,1.52
2022-08-09T13:30:50.598Z,1.45
2022-08-09T13:33:23.967Z,1.40
2022-08-09T13:36:24.466Z,1.25
2022-08-09T13:38:56.621Z,1.92
2022-08-09T13:41:59.046Z,1.67
2022-08-09T13:44:16.800Z,1.55
2022-08-09T13:47:26.713Z,1.40
2022-08-09T13:49:56.418Z,1.58
2022-08-09T13:52:27.102Z,1.70
2022-08-09T13:57:36.846Z,1.95
2022-08-09T14:00:12.631Z,1.80
2022-08-09T14:03:03.637Z,1.38
2022-08-09T14:06:01.459Z,1.45
2022-08-09T14:08:21.052Z,1.20
2022-08-09T14:14:15.945Z,1.60
2022-08-09T14:16:16.064Z,1.50
2022-08-09T14:18:49.042Z,1.20
2022-08-09T14:21:18.857Z,1.55
2022-08-09T14:23:55.620Z,1.52
2022-08-09T14:26:31.765Z,1.50
2022-08-09T14:29:02.659Z,1.40
2022-08-09T14:31:36.218Z,1.20
2022-08-09T14:34:30.798Z,1.20
2022-08-09T14:37:06.674Z,1.30
2022-08-09T14:39:45.444Z,1.48
2022-08-09T14:42:28.997Z,1.60
2022-08-09T14:46:39.900Z,1.42
2022-08-09T14:47:58.408Z,1.30
2022-08-09T14:50:28.530Z,1.30
2022-08-09T14:52:56.894Z,1.48
2022-08-09T14:55:29.062Z,1.50
2022-08-09T14:58:03.633Z,1.50
2022-08-09T15:00:33.703Z,1.50
2022-08-09T15:05:32.286Z,1.00
2022-08-09T15:08:00.713Z,1.20
2022-08-09T15:10:31.553Z,1.20
2022-08-09T15:13:03.320Z,1.20
2022-08-09T15:15:34.558Z,1.38
2022-08-09T15:18:12.502Z,1.10
2022-08-09T15:21:57.234Z,1.30
2022-08-09T15:24:09.073Z,1.42
2022-08-09T15:26:31.261Z,1.10
2022-08-09T15:29:04.628Z,1.38
2022-08-09T15:31:41.507Z,1.20
2022-08-09T15:34:32.838Z,1.20
2022-08-09T15:37:01.221Z,1.35
2022-08-09T15:39:48.740Z,1.30
2022-08-09T15:42:22.028Z,1.30
2022-08-09T15:44:51.842Z,1.77
2022-08-09T15:47:23.568Z,1.23
2022-08-09T15:50:11.688Z,1.10
2022-08-09T15:52:54.599Z,1.48
2022-08-09T15:55:54.022Z,1.40
2022-08-09T15:58:26.936Z,1.63
2022-08-09T16:00:57.290Z,3.03
2022-08-09T16:03:37.941Z,3.08
2022-08-09T16:06:32.633Z,1.83
2022-08-09T16:09:01.186Z,1.50
2022-08-09T16:11:32.200Z,1.60
2022-08-09T16:14:07.031Z,1.55
2022-08-09T16:16:39.036Z,1.30
2022-08-09T16:19:13.478Z,1.35
2022-08-09T16:21:48.502Z,1.40
2022-08-09T16:24:33.610Z,1.40
2022-08-09T16:27:05.202Z,1.75
2022-08-09T16:29:37.903Z,1.52
2022-08-09T16:32:34.243Z,2.00
2022-08-09T16:35:03.884Z,1.80
2022-08-09T16:37:54.470Z,1.90
2022-08-09T16:40:40.038Z,1.95
2022-08-09T16:43:10.649Z,2.08
2022-08-09T16:45:44.472Z,2.40
2022-08-09T16:48:41.897Z,2.70
2022-08-09T16:51:08.189Z,2.33
2022-08-09T16:53:47.263Z,1.98
2022-08-09T16:56:26.283Z,2.13
2022-08-09T16:58:59.548Z,2.00
2022-08-09T17:01:34.017Z,2.00
2022-08-09T17:04:06.543Z,2.83
2022-08-09T17:08:40.270Z,2.38
2022-08-09T17:09:46.010Z,2.20
2022-08-09T17:12:12.122Z,1.85
2022-08-09T17:14:48.085Z,1.83
2022-08-09T17:17:26.432Z,1.90
2022-08-09T17:20:28.691Z,1.77
2022-08-09T17:22:49.829Z,2.15
2022-08-09T17:25:22.260Z,1.80
2022-08-09T18:13:40.825Z,2.67
2022-08-09T18:16:04.891Z,2.47
2022-08-09T18:18:32.616Z,2.70
2022-08-09T18:21:12.348Z,2.97
2022-08-09T18:24:11.543Z,2.83
2022-08-09T18:26:45.871Z,2.72
2022-08-09T18:30:42.120Z,2.90
2022-08-09T18:32:05.829Z,2.55
2022-08-09T18:34:35.694Z,3.10
2022-08-09T18:37:05.086Z,2.70
2022-08-09T18:39:45.530Z,2.90
2022-08-09T18:42:17.378Z,2.70
2022-08-09T18:44:47.069Z,2.78
2022-08-09T18:47:18.479Z,2.63
2022-08-09T18:49:49.070Z,2.60
2022-08-09T18:52:28.667Z,2.58
2022-08-09T18:55:03.633Z,2.78
2022-08-09T18:57:42.832Z,2.70
2022-08-09T19:00:16.705Z,2.63
2022-08-09T19:02:50.910Z,2.38
2022-08-09T19:05:41.367Z,2.40
2022-08-09T19:08:11.950Z,2.15
2022-08-09T19:10:47.975Z,2.40
2022-08-09T19:13:18.437Z,2.30
2022-08-09T19:15:52.928Z,2.50
2022-08-09T19:18:33.488Z,1.90
2022-08-09T19:21:09.593Z,2.13
2022-08-09T19:24:32.337Z,2.53
2022-08-09T19:26:31.004Z,2.50
2022-08-09T19:29:01.591Z,2.17
2022-08-09T19:31:45.679Z,2.50
2022-08-09T19:34:21.955Z,2.60
2022-08-09T19:36:52.512Z,2.20
2022-08-09T19:39:42.946Z,2.20
2022-08-09T19:42:15.190Z,2.58
2022-08-09T19:44:50.576Z,1.93
2022-08-09T19:47:23.703Z,2.30
2022-08-09T19:50:06.931Z,2.30
2022-08-09T19:52:51.758Z,2.15
2022-08-09T19:55:25.626Z,2.85
2022-08-09T19:57:54.408Z,2.58
2022-08-09T20:00:22.754Z,2.40
2022-08-09T20:04:16.869Z,2.17
2022-08-09T20:05:46.040Z,2.30
2022-08-09T20:08:25.061Z,2.50
2022-08-09T20:11:04.487Z,2.78
2022-08-09T20:13:36.781Z,2.40
2022-08-09T20:16:37.271Z,2.58
2022-08-09T20:19:42.734Z,2.30
2022-08-09T20:21:56.103Z,2.30
2022-08-09T20:24:29.643Z,2.65
2022-08-09T20:27:05.633Z,2.67
2022-08-09T20:29:39.666Z,2.78
2022-08-09T20:32:30.671Z,2.55
2022-08-09T20:35:01.687Z,3.05
2022-08-09T20:37:37.774Z,2.65
2022-08-09T20:40:26.987Z,2.85
2022-08-09T20:42:59.950Z,2.90
2022-08-09T20:46:01.242Z,2.72
2022-08-09T20:48:21.266Z,2.30
2022-08-09T20:50:55.614Z,2.80
2022-08-09T20:53:37.653Z,2.47
2022-08-09T20:56:17.347Z,2.78
2022-08-09T20:58:57.917Z,2.65
2022-08-09T21:01:34.463Z,2.72
2022-08-09T21:05:51.339Z,2.75
2022-08-09T21:07:13.202Z,2.33
2022-08-09T21:09:45.946Z,2.65
2022-08-09T21:15:13.648Z,2.20
2022-08-09T21:18:23.693Z,2.67
2022-08-09T21:20:31.011Z,2.80
2022-08-09T21:25:55.949Z,2.75
2022-08-09T21:28:35.152Z,2.83
2022-08-09T21:31:17.980Z,2.97
2022-08-09T21:33:54.488Z,3.20
2022-08-09T21:36:28.690Z,3.20
2022-08-09T21:38:59.883Z,2.92
2022-08-09T21:42:03.661Z,3.28
2022-08-09T21:44:33.939Z,3.60
2022-08-09T21:47:08.474Z,3.05
2022-08-09T21:49:39.858Z,3.13
2022-08-09T21:52:17.140Z,3.38
2022-08-09T21:55:03.122Z,3.30
2022-08-09T21:57:39.459Z,3.38
2022-08-09T22:00:32.361Z,3.22
2022-08-09T22:03:04.925Z,3.17
2022-08-09T22:05:41.730Z,3.55
2022-08-09T22:08:14.617Z,4.28
2022-08-09T22:11:50.099Z,3.42
2022-08-09T22:13:38.322Z,3.60
2022-08-09T22:16:09.116Z,4.00
2022-08-09T22:18:53.059Z,3.60
2022-08-09T22:21:27.251Z,3.70
2022-08-09T22:24:07.882Z,4.03
2022-08-09T22:26:51.289Z,3.78
2022-08-09T22:29:24.035Z,3.90
2022-08-09T22:31:56.776Z,4.10
2022-08-09T22:34:26.717Z,4.00
2022-08-09T22:36:55.618Z,4.55
2022-08-09T22:39:55.809Z,4.75
2022-08-09T22:42:21.500Z,4.50
2022-08-09T22:45:00.055Z,4.20
2022-08-09T22:48:16.013Z,4.55
2022-08-09T22:50:29.890Z,4.70
2022-08-09T22:52:58.811Z,4.35
2022-08-09T22:55:39.265Z,4.00
2022-08-09T22:58:20.293Z,4.40
2022-08-09T23:01:02.627Z,4.32
2022-08-09T23:04:06.059Z,4.43
2022-08-09T23:06:30.038Z,4.10
2022-08-09T23:09:02.512Z,4.15
2022-08-09T23:11:30.835Z,4.03
2022-08-09T23:14:00.566Z,4.30
2022-08-09T23:16:28.933Z,4.05
2022-08-09T23:18:57.238Z,4.35
2022-08-09T23:21:28.821Z,4.22
2022-08-09T23:24:05.947Z,4.03
2022-08-09T23:26:35.725Z,4.25
2022-08-09T23:29:06.054Z,4.22
2022-08-09T23:31:34.471Z,4.05
2022-08-09T23:34:03.915Z,4.28
2022-08-09T23:36:33.052Z,4.32
2022-08-09T23:39:01.407Z,4.47
2022-08-09T23:41:30.072Z,4.43
2022-08-09T23:44:02.567Z,4.30
2022-08-09T23:46:32.956Z,4.65
2022-08-09T23:49:01.824Z,4.55
2022-08-09T23:51:30.157Z,4.68
2022-08-09T23:54:02.667Z,4.60
2022-08-09T23:56:53.616Z,4.53
2022-08-09T23:59:21.531Z,4.60
